Time;durP1;ratioP1;P1;durP2;ratioP2;P2;SDS_P1;SDS_P2;PMS_P1;PMS_P2;Temp;Humidity;BMP_temperature;BMP_pressure;BME280_temperature;BME280_humidity;BME280_pressure;Samples;Min_cycle;Max_cycle;Signal;HPM_P1;HPM_P2
2023/10/30 00:00:45;;;;;;;0.50;0.50;;;;;;;;;;5117447;28;20204;-85
2023/10/30 00:03:11;;;;;;;0.57;0.57;;;;;;;;;;5016267;28;20313;-84
2023/10/30 00:05:37;;;;;;;0.70;0.70;;;;;;;;;;5013460;28;20199;-85
2023/10/30 00:08:03;;;;;;;0.60;0.60;;;;;;;;;;5017821;28;20263;-85
2023/10/30 00:10:29;;;;;;;0.50;0.50;;;;;;;;;;5015218;28;20183;-83
2023/10/30 00:12:55;;;;;;;0.60;0.60;;;;;;;;;;5012953;28;20270;-85
2023/10/30 00:15:23;;;;;;;0.40;0.40;;;;;;;;;;5009352;28;20196;-83
2023/10/30 00:17:49;;;;;;;0.70;0.70;;;;;;;;;;5012956;28;20176;-85
2023/10/30 00:20:15;;;;;;;0.60;0.60;;;;;;;;;;5019227;28;20260;-86
2023/10/30 00:22:41;;;;;;;0.40;0.40;;;;;;;;;;5018085;28;20232;-82
2023/10/30 00:25:07;;;;;;;0.50;0.50;;;;;;;;;;5015266;28;20242;-84
2023/10/30 00:27:33;;;;;;;0.60;0.60;;;;;;;;;;5015279;28;20203;-84
2023/10/30 00:30:01;;;;;;;0.50;0.50;;;;;;;;;;5018423;28;20390;-83
2023/10/30 00:32:27;;;;;;;0.50;0.50;;;;;;;;;;5011036;28;20191;-84
2023/10/30 00:34:53;;;;;;;0.60;0.60;;;;;;;;;;5036558;28;20168;-84
2023/10/30 00:37:22;;;;;;;0.50;0.50;;;;;;;;;;5036535;28;20176;-84
2023/10/30 00:39:48;;;;;;;0.40;0.40;;;;;;;;;;5034862;28;20207;-83
2023/10/30 00:42:14;;;;;;;0.47;0.47;;;;;;;;;;5039248;28;20188;-83
2023/10/30 00:44:40;;;;;;;0.50;0.50;;;;;;;;;;5024709;28;20191;-83
2023/10/30 00:47:06;;;;;;;0.50;0.50;;;;;;;;;;5022997;28;20181;-84
2023/10/30 00:49:33;;;;;;;0.60;0.60;;;;;;;;;;5022596;28;20184;-83
2023/10/30 00:51:59;;;;;;;0.50;0.50;;;;;;;;;;5044214;28;20191;-83
2023/10/30 00:54:25;;;;;;;0.50;0.50;;;;;;;;;;5127754;28;20629;-84
2023/10/30 00:56:52;;;;;;;0.40;0.40;;;;;;;;;;5133187;28;20252;-82
2023/10/30 00:59:18;;;;;;;0.50;0.50;;;;;;;;;;5136699;28;20260;-82
2023/10/30 01:01:44;;;;;;;0.40;0.40;;;;;;;;;;5138420;28;20169;-81
2023/10/30 01:04:11;;;;;;;0.50;0.50;;;;;;;;;;5123401;28;20173;-84
2023/10/30 01:06:37;;;;;;;0.60;0.60;;;;;;;;;;5120608;28;20189;-84
2023/10/30 01:09:03;;;;;;;0.50;0.50;;;;;;;;;;5119683;28;20521;-84
2023/10/30 01:11:29;;;;;;;0.40;0.40;;;;;;;;;;5122320;28;20181;-84
2023/10/30 01:13:57;;;;;;;0.50;0.50;;;;;;;;;;5123926;28;20173;-84
2023/10/30 01:16:23;;;;;;;0.57;0.57;;;;;;;;;;5124234;28;20203;-84
2023/10/30 01:18:50;;;;;;;0.50;0.50;;;;;;;;;;5126438;28;20204;-85
2023/10/30 01:21:17;;;;;;;0.50;0.50;;;;;;;;;;5118744;28;20201;-84
2023/10/30 01:23:43;;;;;;;0.40;0.40;;;;;;;;;;5124551;28;20718;-84
2023/10/30 01:26:09;;;;;;;0.40;0.40;;;;;;;;;;5124896;28;20260;-84
2023/10/30 01:28:36;;;;;;;0.53;0.53;;;;;;;;;;5124751;28;20212;-85
2023/10/30 01:31:04;;;;;;;0.40;0.40;;;;;;;;;;5121422;28;20769;-84
2023/10/30 01:33:30;;;;;;;0.50;0.50;;;;;;;;;;5118051;27;20177;-83
2023/10/30 01:35:56;;;;;;;0.47;0.47;;;;;;;;;;5124319;28;20197;-84
2023/10/30 01:38:22;;;;;;;0.50;0.50;;;;;;;;;;5123419;28;20182;-82
2023/10/30 01:40:49;;;;;;;0.40;0.40;;;;;;;;;;5126873;28;20212;-83
2023/10/30 01:43:15;;;;;;;0.57;0.57;;;;;;;;;;5124593;28;20184;-84
2023/10/30 01:45:41;;;;;;;0.50;0.50;;;;;;;;;;5121701;28;20189;-84
2023/10/30 01:48:08;;;;;;;0.50;0.50;;;;;;;;;;5119957;28;20181;-84
2023/10/30 01:50:36;;;;;;;0.50;0.50;;;;;;;;;;5119382;28;20185;-85
2023/10/30 01:53:02;;;;;;;0.50;0.50;;;;;;;;;;5121230;28;20173;-84
2023/10/30 01:55:29;;;;;;;0.50;0.50;;;;;;;;;;5116441;27;20200;-84
2023/10/30 01:57:55;;;;;;;0.60;0.60;;;;;;;;;;5121553;28;20196;-84
2023/10/30 02:00:21;;;;;;;0.50;0.50;;;;;;;;;;5118334;28;20212;-83
2023/10/30 02:02:48;;;;;;;0.40;0.40;;;;;;;;;;5123963;28;20211;-83
2023/10/30 02:05:14;;;;;;;0.60;0.60;;;;;;;;;;5118656;28;20751;-84
2023/10/30 02:07:40;;;;;;;0.67;0.67;;;;;;;;;;5124023;28;20232;-84
2023/10/30 02:10:07;;;;;;;0.50;0.50;;;;;;;;;;5122839;28;20181;-85
2023/10/30 02:12:33;;;;;;;0.50;0.50;;;;;;;;;;5125100;27;20178;-82
2023/10/30 02:14:59;;;;;;;0.50;0.50;;;;;;;;;;5126475;28;20208;-83
2023/10/30 02:17:25;;;;;;;0.50;0.50;;;;;;;;;;5125804;28;20200;-83
2023/10/30 02:19:51;;;;;;;0.50;0.50;;;;;;;;;;5132388;28;20246;-82
2023/10/30 02:22:17;;;;;;;0.50;0.50;;;;;;;;;;5136138;28;20188;-83
2023/10/30 02:24:45;;;;;;;0.50;0.50;;;;;;;;;;5135980;28;20548;-84
2023/10/30 02:27:11;;;;;;;0.50;0.50;;;;;;;;;;5118384;28;20176;-84
2023/10/30 02:29:38;;;;;;;0.50;0.50;;;;;;;;;;5122148;28;20161;-85
2023/10/30 02:32:04;;;;;;;0.50;0.50;;;;;;;;;;5122686;28;20196;-83
2023/10/30 02:34:30;;;;;;;0.50;0.50;;;;;;;;;;5122863;28;20241;-83
2023/10/30 02:36:56;;;;;;;0.40;0.40;;;;;;;;;;5125882;27;20294;-83
2023/10/30 02:39:23;;;;;;;0.50;0.50;;;;;;;;;;5123312;28;20201;-83
2023/10/30 02:41:49;;;;;;;0.50;0.50;;;;;;;;;;5120878;28;20359;-83
2023/10/30 02:44:15;;;;;;;0.50;0.50;;;;;;;;;;5123756;28;20710;-83
2023/10/30 02:46:41;;;;;;;0.60;0.60;;;;;;;;;;5119065;28;20262;-82
2023/10/30 02:49:08;;;;;;;0.50;0.50;;;;;;;;;;5124833;28;20706;-84
2023/10/30 02:51:34;;;;;;;0.50;0.50;;;;;;;;;;5127471;28;20181;-81
2023/10/30 02:54:00;;;;;;;0.50;0.50;;;;;;;;;;5123212;28;20224;-84
2023/10/30 02:56:26;;;;;;;0.50;0.50;;;;;;;;;;5129754;28;20201;-84
2023/10/30 02:58:52;;;;;;;0.47;0.47;;;;;;;;;;5132905;28;20192;-83
2023/10/30 03:01:18;;;;;;;0.50;0.50;;;;;;;;;;5131848;28;20272;-83
2023/10/30 03:03:44;;;;;;;0.50;0.50;;;;;;;;;;5131606;28;20230;-83
2023/10/30 03:06:10;;;;;;;0.50;0.50;;;;;;;;;;5117450;28;20201;-84
2023/10/30 03:08:36;;;;;;;0.50;0.50;;;;;;;;;;5118390;28;20177;-85
2023/10/30 03:11:02;;;;;;;0.57;0.57;;;;;;;;;;5118058;28;20184;-82
2023/10/30 03:13:28;;;;;;;0.60;0.60;;;;;;;;;;5123271;28;20174;-85
2023/10/30 03:15:54;;;;;;;0.40;0.40;;;;;;;;;;5122679;28;20196;-84
2023/10/30 03:18:20;;;;;;;0.50;0.50;;;;;;;;;;5122991;28;20170;-85
2023/10/30 03:20:46;;;;;;;0.50;0.50;;;;;;;;;;5136718;27;20185;-82
2023/10/30 03:23:11;;;;;;;0.60;0.60;;;;;;;;;;5137268;28;20198;-84
2023/10/30 03:25:37;;;;;;;0.50;0.50;;;;;;;;;;5137622;28;20189;-83
2023/10/30 03:28:03;;;;;;;0.50;0.50;;;;;;;;;;5136642;28;20173;-83
2023/10/30 03:30:29;;;;;;;0.53;0.53;;;;;;;;;;5137676;28;20181;-82
2023/10/30 03:32:55;;;;;;;0.50;0.50;;;;;;;;;;5126150;28;20184;-84
2023/10/30 03:35:23;;;;;;;0.43;0.43;;;;;;;;;;5134239;28;20201;-83
2023/10/30 03:37:49;;;;;;;0.40;0.40;;;;;;;;;;5120101;28;20192;-84
2023/10/30 03:40:15;;;;;;;0.50;0.50;;;;;;;;;;5116484;28;20200;-84
2023/10/30 03:42:41;;;;;;;0.60;0.60;;;;;;;;;;5119044;28;20241;-85
2023/10/30 03:45:07;;;;;;;0.47;0.47;;;;;;;;;;5121347;28;20219;-84
2023/10/30 03:47:33;;;;;;;0.60;0.60;;;;;;;;;;5122000;28;20184;-85
2023/10/30 03:49:59;;;;;;;0.47;0.47;;;;;;;;;;5120262;28;20177;-84
2023/10/30 03:52:25;;;;;;;0.40;0.40;;;;;;;;;;5117800;28;20229;-85
2023/10/30 03:54:51;;;;;;;0.40;0.40;;;;;;;;;;5115452;28;20176;-84
2023/10/30 03:57:21;;;;;;;0.50;0.50;;;;;;;;;;5119817;28;20192;-84
2023/10/30 03:59:46;;;;;;;0.53;0.53;;;;;;;;;;5120839;28;20307;-84
2023/10/30 04:02:12;;;;;;;0.50;0.50;;;;;;;;;;5119148;28;20638;-84
2023/10/30 04:04:38;;;;;;;0.40;0.40;;;;;;;;;;5121428;28;20181;-84
2023/10/30 04:07:05;;;;;;;0.40;0.40;;;;;;;;;;5119327;28;20191;-85
2023/10/30 04:09:33;;;;;;;0.53;0.53;;;;;;;;;;5116888;28;20177;-84
2023/10/30 04:12:02;;;;;;;0.50;0.50;;;;;;;;;;5123420;28;20181;-84
2023/10/30 04:14:30;;;;;;;0.53;0.53;;;;;;;;;;5120892;28;20185;-83
2023/10/30 04:16:56;;;;;;;0.40;0.40;;;;;;;;;;5121116;28;20637;-83
2023/10/30 04:19:24;;;;;;;0.40;0.40;;;;;;;;;;5126678;28;20257;-83
2023/10/30 04:21:50;;;;;;;0.50;0.50;;;;;;;;;;5125287;28;20258;-84
2023/10/30 04:24:16;;;;;;;0.50;0.50;;;;;;;;;;5126267;28;20169;-84
2023/10/30 04:26:42;;;;;;;0.50;0.50;;;;;;;;;;5123992;28;20249;-84
2023/10/30 04:29:08;;;;;;;0.50;0.50;;;;;;;;;;5122299;28;20169;-83
2023/10/30 04:31:34;;;;;;;0.50;0.50;;;;;;;;;;5125610;28;20249;-82
2023/10/30 04:34:00;;;;;;;0.50;0.50;;;;;;;;;;5126354;28;20181;-83
2023/10/30 04:36:26;;;;;;;0.40;0.40;;;;;;;;;;5126035;28;20220;-83
2023/10/30 04:38:53;;;;;;;0.50;0.50;;;;;;;;;;5124132;28;20264;-83
2023/10/30 04:41:19;;;;;;;0.50;0.50;;;;;;;;;;5125916;28;20308;-85
2023/10/30 04:43:45;;;;;;;0.50;0.50;;;;;;;;;;5126967;28;20200;-84
2023/10/30 04:46:13;;;;;;;0.60;0.60;;;;;;;;;;5121271;28;20189;-84
2023/10/30 04:48:39;;;;;;;0.40;0.40;;;;;;;;;;5121945;28;20186;-84
2023/10/30 04:51:05;;;;;;;0.40;0.40;;;;;;;;;;5123514;28;20722;-84
2023/10/30 04:53:31;;;;;;;0.50;0.50;;;;;;;;;;5124261;28;20241;-83
2023/10/30 04:55:57;;;;;;;0.50;0.50;;;;;;;;;;5123915;28;20250;-83
2023/10/30 04:58:23;;;;;;;0.53;0.53;;;;;;;;;;5123601;28;20197;-83
2023/10/30 05:00:49;;;;;;;0.50;0.50;;;;;;;;;;5126807;28;20212;-83
2023/10/30 05:03:16;;;;;;;0.50;0.50;;;;;;;;;;5121982;28;20176;-81
2023/10/30 05:05:42;;;;;;;0.50;0.50;;;;;;;;;;5023964;28;20304;-85
2023/10/30 05:08:08;;;;;;;0.40;0.40;;;;;;;;;;5030370;28;20189;-82
2023/10/30 05:10:34;;;;;;;0.50;0.50;;;;;;;;;;5024929;28;20688;-81
2023/10/30 05:13:00;;;;;;;0.47;0.47;;;;;;;;;;5022898;28;20181;-82
2023/10/30 05:15:26;;;;;;;0.50;0.50;;;;;;;;;;5019104;28;20227;-82
2023/10/30 05:17:52;;;;;;;0.43;0.43;;;;;;;;;;5022610;28;20653;-82
2023/10/30 05:20:18;;;;;;;0.40;0.40;;;;;;;;;;5017695;28;20201;-82
2023/10/30 05:22:44;;;;;;;0.40;0.40;;;;;;;;;;5023075;28;20169;-84
2023/10/30 05:25:10;;;;;;;0.50;0.50;;;;;;;;;;5024376;28;20705;-84
2023/10/30 05:27:36;;;;;;;0.43;0.43;;;;;;;;;;5020791;28;20214;-82
2023/10/30 05:30:02;;;;;;;0.60;0.60;;;;;;;;;;5022508;28;20610;-82
2023/10/30 05:32:28;;;;;;;0.50;0.50;;;;;;;;;;5025954;28;20192;-83
2023/10/30 05:34:54;;;;;;;0.63;0.63;;;;;;;;;;5023341;28;20177;-81
2023/10/30 05:37:20;;;;;;;0.50;0.50;;;;;;;;;;5024833;28;20595;-82
2023/10/30 05:39:48;;;;;;;0.50;0.50;;;;;;;;;;5026025;28;20220;-81
2023/10/30 05:42:14;;;;;;;0.47;0.47;;;;;;;;;;5024611;28;20185;-84
2023/10/30 05:44:40;;;;;;;0.50;0.50;;;;;;;;;;5022527;28;20274;-83
2023/10/30 05:47:06;;;;;;;0.60;0.60;;;;;;;;;;5024140;28;20207;-86
2023/10/30 05:49:32;;;;;;;0.50;0.50;;;;;;;;;;5020265;28;20429;-85
2023/10/30 05:51:59;;;;;;;0.60;0.60;;;;;;;;;;5021626;28;20181;-85
2023/10/30 05:54:26;;;;;;;0.50;0.50;;;;;;;;;;5031818;28;20188;-84
2023/10/30 05:56:52;;;;;;;0.60;0.60;;;;;;;;;;5032748;28;20177;-82
2023/10/30 05:59:21;;;;;;;0.67;0.67;;;;;;;;;;5029542;28;20674;-83
2023/10/30 06:01:48;;;;;;;0.60;0.60;;;;;;;;;;5017358;28;20263;-84
2023/10/30 06:04:14;;;;;;;0.67;0.67;;;;;;;;;;5019711;28;20188;-84
2023/10/30 06:06:40;;;;;;;0.50;0.50;;;;;;;;;;5019367;28;20203;-85
2023/10/30 06:09:08;;;;;;;0.60;0.60;;;;;;;;;;5021690;28;20176;-82
2023/10/30 06:11:34;;;;;;;0.57;0.57;;;;;;;;;;5035192;28;20181;-83
2023/10/30 06:14:00;;;;;;;0.70;0.70;;;;;;;;;;5034017;28;20179;-81
2023/10/30 06:16:26;;;;;;;0.60;0.60;;;;;;;;;;5029871;28;20199;-83
2023/10/30 06:18:54;;;;;;;0.43;0.43;;;;;;;;;;5017862;28;20177;-83
2023/10/30 06:21:20;;;;;;;0.60;0.60;;;;;;;;;;5018350;28;20705;-83
2023/10/30 06:23:47;;;;;;;0.60;0.60;;;;;;;;;;5018399;28;20252;-82
2023/10/30 06:26:14;;;;;;;0.47;0.47;;;;;;;;;;5022515;28;20192;-83
2023/10/30 06:28:40;;;;;;;0.60;0.60;;;;;;;;;;5021407;28;20180;-81
2023/10/30 06:31:14;;;;;;;0.60;0.60;;;;;;;;;;5023030;28;20233;-84
2023/10/30 06:33:40;;;;;;;0.50;0.50;;;;;;;;;;5021773;28;20173;-83
2023/10/30 06:36:07;;;;;;;0.60;0.60;;;;;;;;;;5022061;28;20207;-84
2023/10/30 06:38:36;;;;;;;0.60;0.60;;;;;;;;;;5020569;28;20204;-83
2023/10/30 06:41:01;;;;;;;0.50;0.50;;;;;;;;;;5021635;28;20295;-82
2023/10/30 06:43:29;;;;;;;0.43;0.43;;;;;;;;;;5021481;28;20180;-83
2023/10/30 06:46:01;;;;;;;0.50;0.50;;;;;;;;;;5020000;28;20206;-84
2023/10/30 06:48:27;;;;;;;0.70;0.70;;;;;;;;;;5023060;28;20173;-82
2023/10/30 06:50:54;;;;;;;0.47;0.47;;;;;;;;;;5027627;28;20180;-82
2023/10/30 06:53:20;;;;;;;0.40;0.40;;;;;;;;;;5024298;28;20185;-81
2023/10/30 06:55:48;;;;;;;0.40;0.40;;;;;;;;;;5021578;28;20205;-82
2023/10/30 06:58:16;;;;;;;0.50;0.50;;;;;;;;;;5036196;28;20180;-81
2023/10/30 07:00:45;;;;;;;0.47;0.47;;;;;;;;;;5019519;28;20224;-84
2023/10/30 07:03:11;;;;;;;0.33;0.33;;;;;;;;;;5027419;28;20214;-84
2023/10/30 07:05:37;;;;;;;0.57;0.57;;;;;;;;;;5030242;28;20200;-85
2023/10/30 07:08:04;;;;;;;0.50;0.50;;;;;;;;;;5036293;28;20183;-84
2023/10/30 07:10:30;;;;;;;0.40;0.40;;;;;;;;;;5019160;28;20216;-84
2023/10/30 07:12:57;;;;;;;0.30;0.30;;;;;;;;;;5020154;28;20180;-82
2023/10/30 07:15:23;;;;;;;0.43;0.43;;;;;;;;;;5017188;28;20207;-84
2023/10/30 07:17:49;;;;;;;0.30;0.30;;;;;;;;;;5017758;28;20183;-84
2023/10/30 07:20:15;;;;;;;0.40;0.40;;;;;;;;;;5063890;28;20205;-84
2023/10/30 07:22:41;;;;;;;0.30;0.30;;;;;;;;;;5069084;28;20176;-84
2023/10/30 07:25:07;;;;;;;0.33;0.33;;;;;;;;;;5071601;28;20189;-85
2023/10/30 07:27:34;;;;;;;0.43;0.43;;;;;;;;;;5063497;28;20209;-84
2023/10/30 07:30:02;;;;;;;0.40;0.40;;;;;;;;;;5076969;28;20919;-84
2023/10/30 07:32:28;;;;;;;0.40;0.40;;;;;;;;;;5074636;28;20173;-83
2023/10/30 07:34:54;;;;;;;0.40;0.40;;;;;;;;;;5073154;28;20275;-80
2023/10/30 07:37:20;;;;;;;0.30;0.30;;;;;;;;;;5049464;28;20180;-82
2023/10/30 07:39:46;;;;;;;0.47;0.47;;;;;;;;;;5030500;28;20196;-81
2023/10/30 07:42:12;;;;;;;0.30;0.30;;;;;;;;;;5066820;28;20175;-80
2023/10/30 07:44:38;;;;;;;0.43;0.43;;;;;;;;;;5082844;28;20207;-80
2023/10/30 07:47:04;;;;;;;0.40;0.40;;;;;;;;;;5033978;28;20184;-80
2023/10/30 07:49:30;;;;;;;0.50;0.50;;;;;;;;;;5033921;28;20185;-82
2023/10/30 07:51:56;;;;;;;0.50;0.50;;;;;;;;;;5033447;28;20165;-81
2023/10/30 07:54:23;;;;;;;0.50;0.50;;;;;;;;;;5034884;28;20297;-80
2023/10/30 07:56:49;;;;;;;0.37;0.37;;;;;;;;;;5028404;28;20204;-82
2023/10/30 07:59:16;;;;;;;0.50;0.50;;;;;;;;;;5018248;28;20285;-82
2023/10/30 08:01:45;;;;;;;0.50;0.50;;;;;;;;;;5022659;28;20201;-84
2023/10/30 08:04:11;;;;;;;0.40;0.40;;;;;;;;;;5022548;28;20210;-81
2023/10/30 08:06:37;;;;;;;0.50;0.50;;;;;;;;;;5028886;28;20205;-83
2023/10/30 08:09:05;;;;;;;0.40;0.40;;;;;;;;;;5020121;28;20275;-83
2023/10/30 08:11:32;;;;;;;0.50;0.50;;;;;;;;;;5018787;28;20570;-83
2023/10/30 08:13:59;;;;;;;0.60;0.60;;;;;;;;;;5020762;28;20180;-84
2023/10/30 08:16:25;;;;;;;0.60;0.60;;;;;;;;;;5018263;28;20544;-85
2023/10/30 08:18:51;;;;;;;0.67;0.67;;;;;;;;;;5020070;28;20187;-82
2023/10/30 08:21:17;;;;;;;0.60;0.60;;;;;;;;;;5020198;28;20204;-82
2023/10/30 08:23:43;;;;;;;0.60;0.60;;;;;;;;;;5018192;28;20258;-84
2023/10/30 08:26:09;;;;;;;0.60;0.60;;;;;;;;;;5018225;28;20230;-83
2023/10/30 08:28:36;;;;;;;0.60;0.60;;;;;;;;;;5014361;28;20185;-84
2023/10/30 08:31:04;;;;;;;0.60;0.60;;;;;;;;;;5015873;28;20196;-83
2023/10/30 08:33:30;;;;;;;0.50;0.50;;;;;;;;;;5021120;28;20203;-82
2023/10/30 08:35:59;;;;;;;0.60;0.60;;;;;;;;;;5015173;28;20192;-83
2023/10/30 08:38:26;;;;;;;0.50;0.50;;;;;;;;;;5020141;28;20556;-82
2023/10/30 08:40:51;;;;;;;0.60;0.60;;;;;;;;;;5016882;28;20689;-83
2023/10/30 08:43:19;;;;;;;0.60;0.60;;;;;;;;;;5014496;28;20234;-83
2023/10/30 08:45:45;;;;;;;0.57;0.57;;;;;;;;;;5017416;28;20200;-82
2023/10/30 08:48:12;;;;;;;0.50;0.50;;;;;;;;;;5019011;28;20267;-82
2023/10/30 08:50:40;;;;;;;0.50;0.50;;;;;;;;;;5017270;28;20189;-83
2023/10/30 08:53:07;;;;;;;0.60;0.60;;;;;;;;;;5018384;28;20192;-83
2023/10/30 08:55:33;;;;;;;0.60;0.60;;;;;;;;;;5015066;28;20231;-83
2023/10/30 08:57:59;;;;;;;0.60;0.60;;;;;;;;;;5017103;28;20454;-85
2023/10/30 09:00:26;;;;;;;0.70;0.70;;;;;;;;;;5018903;28;20208;-84
2023/10/30 09:02:52;;;;;;;0.60;0.60;;;;;;;;;;5013588;28;20180;-83
2023/10/30 09:05:18;;;;;;;0.60;0.60;;;;;;;;;;5022295;28;20215;-83
2023/10/30 09:07:46;;;;;;;0.67;0.67;;;;;;;;;;5024891;28;20184;-80
2023/10/30 09:10:12;;;;;;;0.60;0.60;;;;;;;;;;5040794;28;20234;-83
2023/10/30 09:12:38;;;;;;;0.50;0.50;;;;;;;;;;5029386;28;20181;-82
2023/10/30 09:15:08;;;;;;;0.60;0.60;;;;;;;;;;5086831;28;20254;-82
2023/10/30 09:17:34;;;;;;;0.60;0.60;;;;;;;;;;5132929;28;20181;-83
2023/10/30 09:19:59;;;;;;;0.60;0.60;;;;;;;;;;5123711;28;20201;-82
2023/10/30 09:22:25;;;;;;;0.70;0.70;;;;;;;;;;5098715;27;20172;-83
2023/10/30 09:24:53;;;;;;;0.63;0.63;;;;;;;;;;5041543;28;20255;-82
2023/10/30 09:27:19;;;;;;;0.57;0.57;;;;;;;;;;5069211;28;20165;-83
2023/10/30 09:29:45;;;;;;;0.50;0.50;;;;;;;;;;5126744;27;20190;-84
2023/10/30 09:32:11;;;;;;;0.57;0.57;;;;;;;;;;5127730;28;20181;-82
2023/10/30 09:34:38;;;;;;;0.57;0.57;;;;;;;;;;5126425;28;20176;-83
2023/10/30 09:37:04;;;;;;;0.50;0.50;;;;;;;;;;5126819;28;20183;-83
2023/10/30 09:39:30;;;;;;;0.60;0.60;;;;;;;;;;5079577;28;20176;-82
2023/10/30 09:41:59;;;;;;;0.40;0.40;;;;;;;;;;5024319;28;20200;-83
2023/10/30 09:44:25;;;;;;;0.50;0.50;;;;;;;;;;5013106;28;20200;-83
2023/10/30 09:46:52;;;;;;;0.40;0.40;;;;;;;;;;5001003;28;20256;-83
2023/10/30 09:49:18;;;;;;;0.50;0.50;;;;;;;;;;4999475;28;20260;-84
2023/10/30 09:51:46;;;;;;;0.50;0.50;;;;;;;;;;5015890;28;20181;-82
2023/10/30 09:54:13;;;;;;;0.30;0.30;;;;;;;;;;5002324;28;20649;-82
2023/10/30 09:56:39;;;;;;;0.40;0.40;;;;;;;;;;5003927;28;20201;-84
2023/10/30 09:59:05;;;;;;;0.30;0.30;;;;;;;;;;5015795;28;20196;-81
2023/10/30 10:01:31;;;;;;;0.40;0.40;;;;;;;;;;5011910;28;20221;-83
2023/10/30 10:03:57;;;;;;;0.40;0.40;;;;;;;;;;5023011;28;20181;-82
2023/10/30 10:06:23;;;;;;;0.40;0.40;;;;;;;;;;5013273;28;20201;-81
2023/10/30 10:08:50;;;;;;;0.30;0.30;;;;;;;;;;5070966;28;20223;-83
2023/10/30 10:11:18;;;;;;;0.30;0.30;;;;;;;;;;5022948;28;20180;-82
2023/10/30 10:13:48;;;;;;;0.40;0.40;;;;;;;;;;5018749;28;20193;-82
2023/10/30 10:16:14;;;;;;;0.40;0.40;;;;;;;;;;5018592;28;20220;-82
2023/10/30 10:18:40;;;;;;;0.30;0.30;;;;;;;;;;5018629;28;20245;-84
2023/10/30 10:21:11;;;;;;;0.30;0.30;;;;;;;;;;5016584;28;20220;-82
2023/10/30 10:23:38;;;;;;;0.40;0.40;;;;;;;;;;5019273;28;20694;-83
2023/10/30 10:26:05;;;;;;;0.40;0.40;;;;;;;;;;5018276;28;20235;-83
2023/10/30 10:28:31;;;;;;;0.40;0.40;;;;;;;;;;5024068;28;20620;-83
2023/10/30 10:30:57;;;;;;;0.50;0.50;;;;;;;;;;5023731;28;20183;-80
2023/10/30 10:33:30;;;;;;;0.30;0.30;;;;;;;;;;5020450;28;20188;-82
2023/10/30 10:35:57;;;;;;;0.40;0.40;;;;;;;;;;5019510;28;20215;-82
2023/10/30 10:38:23;;;;;;;0.50;0.50;;;;;;;;;;5017581;28;20180;-83
2023/10/30 10:40:54;;;;;;;0.50;0.50;;;;;;;;;;5017714;28;20236;-83
2023/10/30 10:43:21;;;;;;;0.40;0.40;;;;;;;;;;5020178;28;20338;-83
2023/10/30 10:45:48;;;;;;;0.53;0.53;;;;;;;;;;5016861;28;20240;-84
2023/10/30 10:48:14;;;;;;;0.50;0.50;;;;;;;;;;5020600;28;20299;-85
2023/10/30 10:50:41;;;;;;;0.40;0.40;;;;;;;;;;5033853;28;20629;-84
2023/10/30 10:53:07;;;;;;;0.40;0.40;;;;;;;;;;5032108;28;20248;-83
2023/10/30 10:55:38;;;;;;;0.50;0.50;;;;;;;;;;5019850;28;20214;-82
2023/10/30 10:58:17;;;;;;;0.57;0.57;;;;;;;;;;5032835;28;20221;-83
2023/10/30 11:00:50;;;;;;;0.50;0.50;;;;;;;;;;5014126;28;20221;-84
2023/10/30 11:03:16;;;;;;;0.30;0.30;;;;;;;;;;5025165;28;20554;-84
2023/10/30 11:05:43;;;;;;;0.40;0.40;;;;;;;;;;5033212;28;20188;-85
2023/10/30 11:08:15;;;;;;;0.40;0.40;;;;;;;;;;5020095;28;20703;-82
2023/10/30 11:10:47;;;;;;;0.47;0.47;;;;;;;;;;5021141;28;20200;-81
2023/10/30 11:13:32;;;;;;;0.50;0.50;;;;;;;;;;5037237;28;20180;-83
2023/10/30 11:16:05;;;;;;;0.40;0.40;;;;;;;;;;5020390;28;20558;-83
2023/10/30 11:18:33;;;;;;;0.60;0.60;;;;;;;;;;5068653;28;20180;-85
2023/10/30 11:21:28;;;;;;;0.50;0.50;;;;;;;;;;5026087;28;20219;-81
2023/10/30 11:23:58;;;;;;;0.40;0.40;;;;;;;;;;5074236;28;20188;-82
2023/10/30 11:26:36;;;;;;;0.50;0.50;;;;;;;;;;5025661;28;20258;-83
2023/10/30 11:29:31;;;;;;;0.50;0.50;;;;;;;;;;5020357;28;20164;-84
2023/10/30 11:32:00;;;;;;;0.50;0.50;;;;;;;;;;5030804;28;20193;-82
2023/10/30 11:34:30;;;;;;;0.40;0.40;;;;;;;;;;5032275;28;20169;-80
2023/10/30 11:37:03;;;;;;;0.37;0.37;;;;;;;;;;5032334;28;20200;-82
2023/10/30 11:39:32;;;;;;;0.50;0.50;;;;;;;;;;5032768;28;20187;-84
2023/10/30 11:41:59;;;;;;;0.40;0.40;;;;;;;;;;5018511;28;20176;-83
2023/10/30 11:44:29;;;;;;;0.50;0.50;;;;;;;;;;5017486;28;20630;-84
2023/10/30 11:46:56;;;;;;;0.50;0.50;;;;;;;;;;5021321;28;20196;-81
2023/10/30 11:49:28;;;;;;;0.43;0.43;;;;;;;;;;5021693;28;20183;-85
2023/10/30 11:51:54;;;;;;;0.50;0.50;;;;;;;;;;5018134;28;20180;-83
2023/10/30 11:54:24;;;;;;;0.60;0.60;;;;;;;;;;5020044;28;20565;-83
2023/10/30 11:56:52;;;;;;;0.50;0.50;;;;;;;;;;5017327;28;20207;-83
2023/10/30 11:59:18;;;;;;;0.50;0.50;;;;;;;;;;5022144;28;20252;-82
2023/10/30 12:01:46;;;;;;;0.50;0.50;;;;;;;;;;5020686;28;20184;-83
2023/10/30 12:04:12;;;;;;;0.53;0.53;;;;;;;;;;5018517;28;20184;-82
2023/10/30 12:06:40;;;;;;;0.50;0.50;;;;;;;;;;5016253;28;20201;-83
2023/10/30 12:09:06;;;;;;;0.40;0.40;;;;;;;;;;5015590;28;20180;-83
2023/10/30 12:11:32;;;;;;;0.50;0.50;;;;;;;;;;5030115;28;20176;-82
2023/10/30 12:13:58;;;;;;;0.50;0.50;;;;;;;;;;5019409;28;20240;-82
2023/10/30 12:16:24;;;;;;;0.37;0.37;;;;;;;;;;5017840;28;20184;-85
2023/10/30 12:18:50;;;;;;;0.50;0.50;;;;;;;;;;5022951;28;20183;-81
2023/10/30 12:21:18;;;;;;;0.40;0.40;;;;;;;;;;5025199;28;20216;-81
2023/10/30 12:23:50;;;;;;;0.40;0.40;;;;;;;;;;5021013;28;20196;-81
2023/10/30 12:26:19;;;;;;;0.40;0.40;;;;;;;;;;5020327;28;20227;-81
2023/10/30 12:28:44;;;;;;;0.40;0.40;;;;;;;;;;5020082;28;20190;-83
2023/10/30 12:31:20;;;;;;;0.40;0.40;;;;;;;;;;5018469;28;20272;-81
2023/10/30 12:33:47;;;;;;;0.50;0.50;;;;;;;;;;5017248;28;20241;-81
2023/10/30 12:36:13;;;;;;;0.50;0.50;;;;;;;;;;5017157;28;20256;-82
2023/10/30 12:38:39;;;;;;;0.40;0.40;;;;;;;;;;5024900;28;20172;-80
2023/10/30 12:41:07;;;;;;;0.50;0.50;;;;;;;;;;5031216;28;20235;-78
2023/10/30 12:43:34;;;;;;;0.37;0.37;;;;;;;;;;5032242;28;20181;-79
2023/10/30 12:46:03;;;;;;;0.43;0.43;;;;;;;;;;5026056;28;20192;-83
2023/10/30 12:48:29;;;;;;;0.50;0.50;;;;;;;;;;5027203;28;20184;-82
2023/10/30 12:50:55;;;;;;;0.60;0.60;;;;;;;;;;5025057;28;20219;-82
2023/10/30 12:53:21;;;;;;;0.50;0.50;;;;;;;;;;5018346;28;20221;-84
2023/10/30 12:55:47;;;;;;;0.40;0.40;;;;;;;;;;5017699;28;20197;-83
2023/10/30 12:58:13;;;;;;;0.50;0.50;;;;;;;;;;5017565;28;20229;-83
2023/10/30 13:00:39;;;;;;;0.40;0.40;;;;;;;;;;5018140;28;20220;-83
2023/10/30 13:03:05;;;;;;;0.50;0.50;;;;;;;;;;5016913;28;20706;-83
2023/10/30 13:05:31;;;;;;;0.50;0.50;;;;;;;;;;5018071;28;20218;-82
2023/10/30 13:07:57;;;;;;;0.40;0.40;;;;;;;;;;5018125;28;20168;-82
2023/10/30 13:10:22;;;;;;;0.50;0.50;;;;;;;;;;5018224;28;20172;-83
2023/10/30 13:12:48;;;;;;;0.40;0.40;;;;;;;;;;5019232;28;20214;-82
2023/10/30 13:15:14;;;;;;;0.50;0.50;;;;;;;;;;5018613;28;20201;-82
2023/10/30 13:17:40;;;;;;;0.40;0.40;;;;;;;;;;5019076;28;20184;-82
2023/10/30 13:20:07;;;;;;;0.43;0.43;;;;;;;;;;5018606;28;20251;-81
2023/10/30 13:22:34;;;;;;;0.40;0.40;;;;;;;;;;5017400;28;20208;-83
2023/10/30 13:25:00;;;;;;;0.40;0.40;;;;;;;;;;5018740;28;20196;-82
2023/10/30 13:27:26;;;;;;;0.50;0.50;;;;;;;;;;5018914;28;20180;-83
2023/10/30 13:29:52;;;;;;;0.40;0.40;;;;;;;;;;5029418;28;20164;-79
2023/10/30 13:32:18;;;;;;;0.30;0.30;;;;;;;;;;5020737;28;20242;-82
2023/10/30 13:34:44;;;;;;;0.40;0.40;;;;;;;;;;5018082;28;20177;-84
2023/10/30 13:37:10;;;;;;;0.50;0.50;;;;;;;;;;5019580;28;20613;-83
2023/10/30 13:39:36;;;;;;;0.50;0.50;;;;;;;;;;5020293;28;20187;-84
2023/10/30 13:42:02;;;;;;;0.60;0.60;;;;;;;;;;5027435;28;20176;-80
2023/10/30 13:44:28;;;;;;;0.50;0.50;;;;;;;;;;5028610;28;20176;-80
2023/10/30 13:46:54;;;;;;;0.40;0.40;;;;;;;;;;5027503;28;20200;-82
2023/10/30 13:49:21;;;;;;;0.43;0.43;;;;;;;;;;5015893;28;20180;-82
2023/10/30 13:51:46;;;;;;;0.50;0.50;;;;;;;;;;5017069;28;20185;-82
2023/10/30 13:54:13;;;;;;;0.50;0.50;;;;;;;;;;5017708;28;20180;-82
2023/10/30 13:56:39;;;;;;;0.50;0.50;;;;;;;;;;5029154;28;20189;-79
2023/10/30 13:59:05;;;;;;;0.40;0.40;;;;;;;;;;5020186;28;20290;-82
2023/10/30 14:01:30;;;;;;;0.50;0.50;;;;;;;;;;5018377;28;20216;-82
2023/10/30 14:03:56;;;;;;;0.50;0.50;;;;;;;;;;5018805;28;20188;-83
2023/10/30 14:06:23;;;;;;;0.50;0.50;;;;;;;;;;5015310;28;20200;-84
2023/10/30 14:08:49;;;;;;;0.40;0.40;;;;;;;;;;5015879;28;20183;-82
2023/10/30 14:11:15;;;;;;;0.50;0.50;;;;;;;;;;5017696;28;20172;-83
2023/10/30 14:13:41;;;;;;;0.47;0.47;;;;;;;;;;5015003;28;20180;-81
2023/10/30 14:16:07;;;;;;;0.40;0.40;;;;;;;;;;5015691;28;20692;-83
2023/10/30 14:18:33;;;;;;;0.50;0.50;;;;;;;;;;5016598;28;20169;-82
2023/10/30 14:20:59;;;;;;;0.40;0.40;;;;;;;;;;5017625;28;20212;-83
2023/10/30 14:23:25;;;;;;;0.40;0.40;;;;;;;;;;5016013;28;20180;-82
2023/10/30 14:25:51;;;;;;;0.40;0.40;;;;;;;;;;5012822;28;20229;-86
2023/10/30 14:28:17;;;;;;;0.50;0.50;;;;;;;;;;5014563;28;20176;-87
2023/10/30 14:30:43;;;;;;;0.43;0.43;;;;;;;;;;5013325;28;20276;-86
2023/10/30 14:33:11;;;;;;;0.50;0.50;;;;;;;;;;5013059;28;20168;-89
2023/10/30 14:35:37;;;;;;;0.40;0.40;;;;;;;;;;5012878;28;20205;-84
2023/10/30 14:38:04;;;;;;;0.43;0.43;;;;;;;;;;5013444;28;20185;-82
2023/10/30 14:40:30;;;;;;;0.50;0.50;;;;;;;;;;5014622;28;20232;-84